地図

経路データ

SID SEASON NUMBER BASIN SUBBASIN NAME ISO_TIME NATURE LAT LON WMO_WIND WMO_PRES WMO_AGENCY TRACK_TYPE DIST2LAND LANDFALL IFLAG USA_AGENCY USA_ATCF_ID USA_LAT USA_LON USA_RECORD USA_STATUS USA_WIND USA_PRES USA_SSHS USA_R34_NE USA_R34_SE USA_R34_SW USA_R34_NW USA_R50_NE USA_R50_SE USA_R50_SW USA_R50_NW USA_R64_NE USA_R64_SE USA_R64_SW USA_R64_NW USA_POCI USA_ROCI USA_RMW USA_EYE TOKYO_LAT TOKYO_LON TOKYO_GRADE TOKYO_WIND TOKYO_PRES TOKYO_R50_DIR TOKYO_R50_LONG TOKYO_R50_SHORT TOKYO_R30_DIR TOKYO_R30_LONG TOKYO_R30_SHORT TOKYO_LAND CMA_LAT CMA_LON CMA_CAT CMA_WIND CMA_PRES HKO_LAT HKO_LON HKO_CAT HKO_WIND HKO_PRES NEWDELHI_LAT NEWDELHI_LON NEWDELHI_GRADE NEWDELHI_WIND NEWDELHI_PRES NEWDELHI_CI NEWDELHI_DP NEWDELHI_POCI REUNION_LAT REUNION_LON REUNION_TYPE REUNION_WIND REUNION_PRES REUNION_TNUM REUNION_CI REUNION_RMW REUNION_R34_NE REUNION_R34_SE REUNION_R34_SW REUNION_R34_NW REUNION_R50_NE REUNION_R50_SE REUNION_R50_SW REUNION_R50_NW REUNION_R64_NE REUNION_R64_SE REUNION_R64_SW REUNION_R64_NW BOM_LAT BOM_LON BOM_TYPE BOM_WIND BOM_PRES BOM_TNUM BOM_CI BOM_RMW BOM_R34_NE BOM_R34_SE BOM_R34_SW BOM_R34_NW BOM_R50_NE BOM_R50_SE BOM_R50_SW BOM_R50_NW BOM_R64_NE BOM_R64_SE BOM_R64_SW BOM_R64_NW BOM_ROCI BOM_POCI BOM_EYE BOM_POS_METHOD BOM_PRES_METHOD NADI_LAT NADI_LON NADI_CAT NADI_WIND NADI_PRES WELLINGTON_LAT WELLINGTON_LON WELLINGTON_WIND WELLINGTON_PRES DS824_LAT DS824_LON DS824_STAGE DS824_WIND DS824_PRES TD9636_LAT TD9636_LON TD9636_STAGE TD9636_WIND TD9636_PRES TD9635_LAT TD9635_LON TD9635_WIND TD9635_PRES TD9635_ROCI NEUMANN_LAT NEUMANN_LON NEUMANN_CLASS NEUMANN_WIND NEUMANN_PRES MLC_LAT MLC_LON MLC_CLASS MLC_WIND MLC_PRES USA_GUST BOM_GUST BOM_GUST_PER REUNION_GUST REUNION_GUST_PER USA_SEAHGT USA_SEARAD_NE USA_SEARAD_SE USA_SEARAD_SW USA_SEARAD_NW STORM_SPEED STORM_DIR
1963009S10083 1963 4 SI MM DELIA 1963-01-09 00:00:00 TS -10.0000 83.0000 main 1801 1796 O________OO___ jtwc_sh SH141963 -10.0000 83.0000 15 -1 -10.0000 83.0000 TC 15 -10.0000 83.0000 1 15 11 260
1963009S10083 1963 4 SI MM DELIA 1963-01-09 03:00:00 TS -10.1004 82.4452 main 1803 1801 P________PP___ SH141963 -10.0877 82.4325 20 -1 -10.0877 82.4325 TC 20 -10.1258 82.4707 1 18 11 258
1963009S10083 1963 4 SI MM DELIA 1963-01-09 06:00:00 TS -10.2170 81.9176 main 1809 1808 O________OP___ jtwc_sh SH141963 -10.2000 81.9000 25 -1 -10.2000 81.9000 TC 25 -10.2509 81.9529 1 22 10 255
1963009S10083 1963 4 SI MM DELIA 1963-01-09 09:00:00 TS -10.3585 81.4379 main 1828 1827 P________PP___ SH141963 -10.3499 81.4275 27 -1 -10.3499 81.4275 TC 27 -10.3756 81.4587 1 26 9 253
1963009S10083 1963 4 SI MM DELIA 1963-01-09 12:00:00 TS -10.5000 81.0000 main 1838 1837 O________OO___ jtwc_sh SH141963 -10.5000 81.0000 30 -1 -10.5000 81.0000 TC 30 -10.5000 81.0000 1 30 9 253
1963009S10083 1963 4 SI MM DELIA 1963-01-09 15:00:00 TS -10.6107 80.5871 main 1848 1848 P________PP___ SH141963 -10.5999 80.5924 27 -1 -10.5999 80.5924 TC 27 -10.6245 80.5833 1 27 8 254
1963009S10083 1963 4 SI MM DELIA 1963-01-09 18:00:00 TS -10.7235 80.1870 main 1860 1860 O________OP___ jtwc_sh SH141963 -10.7000 80.2000 25 -1 -10.7000 80.2000 TC 25 -10.7494 80.1923 1 25 8 252
1963009S10083 1963 4 SI MM DELIA 1963-01-09 21:00:00 TS -10.8628 79.7838 main 1884 1884 P________PP___ SH141963 -10.8499 79.8075 22 -1 -10.8499 79.8075 TC 22 -10.8745 79.8051 1 22 9 251
1963009S10083 1963 4 SI MM DELIA 1963-01-10 00:00:00 TS -11.0005 79.3704 main 1898 1898 O________OO___ jtwc_sh SH141963 -11.0000 79.4000 20 -1 -11.0000 79.4000 TC 20 -11.0000 79.4000 1 20 9 253
1963009S10083 1963 4 SI MM DELIA 1963-01-10 03:00:00 TS -11.1128 78.9322 main 1914 1914 P________PP___ SH141963 -11.0999 78.9649 20 -1 -11.0999 78.9649 TC 20 -11.1248 78.9546 1 20 9 256
1963009S10083 1963 4 SI MM DELIA 1963-01-10 06:00:00 TS -11.2252 78.4724 main 1930 1930 O________OP___ jtwc_sh SH141963 -11.2000 78.5000 20 -1 -11.2000 78.5000 TC 20 -11.2498 78.4873 1 20 10 255
1963009S10083 1963 4 SI MM DELIA 1963-01-10 09:00:00 TS -11.3626 77.9928 main 1959 1959 P________PP___ SH141963 -11.3500 78.0075 20 -1 -11.3500 78.0075 TC 20 -11.3748 78.0014 1 20 10 254
1963009S10083 1963 4 SI MM DELIA 1963-01-10 12:00:00 TS -11.5000 77.5000 main 1979 1979 O________OO___ jtwc_sh SH141963 -11.5000 77.5000 20 -1 -11.5000 77.5000 TC 20 -11.5000 77.5000 1 20 10 255
1963009S10083 1963 4 SI MM DELIA 1963-01-10 15:00:00 TS -11.6123 77.0084 main 2000 1985 P________PP___ SH141963 -11.5999 77.0074 17 -1 -11.5999 77.0074 TC 17 -11.6249 76.9812 1 17 16 280
1963009S10083 1963 4 SI MM DELIA 1963-01-10 18:00:00 TS -11.2156 75.8719 main 1985 1983 O________OP___ jtwc_sh SH141963 -11.7000 76.5000 15 -1 -11.7000 76.5000 TC 15 -11.7499 76.4499 1 15 21 285
1963009S10083 1963 4 SI MM DELIA 1963-01-10 21:00:00 TS -11.0549 74.9433 main 2006 1996 P________PP___ SH141963 -11.8500 75.9426 12 -1 -11.8500 75.9426 TC 12 -11.8749 75.9187 1 12 17 277
1963009S10083 1963 4 SI MM DELIA 1963-01-11 00:00:00 TS -11.0248 74.1754 main 2021 1976 O________OO___ jtwc_sh SH141963 -12.0000 75.4000 10 -1 -12.0000 75.4000 TC 10 -12.0000 75.4000 1 10 14 270
1963009S10083 1963 4 SI MM DELIA 1963-01-11 03:00:00 TS -11.0618 73.5511 main 1976 1927 P________PP___ SH141963 -12.0998 74.9424 10 -1 -12.0998 74.9424 TC 10 -12.1324 74.9349 1 10 10 256
1963009S10083 1963 4 SI MM DELIA 1963-01-11 06:00:00 TS -11.2733 73.1793 main 1927 1879 O________OP___ jtwc_sh SH141963 -12.2000 74.5000 10 -1 -12.2000 74.5000 TC 10 -12.2640 74.4798 1 10 9 240
1963009S10083 1963 4 SI MM DELIA 1963-01-11 09:00:00 TS -11.4868 72.7910 main 1879 1830 P________PP___ SH141963 -12.3499 74.0225 10 -1 -12.3499 74.0225 TC 10 -12.3886 74.0099 1 10 9 242
1963009S10083 1963 4 SI MM DELIA 1963-01-11 12:00:00 TS -11.6911 72.3885 main 1830 1781 O________OO___ jtwc_sh SH141963 -12.5000 73.5000 10 -1 -12.5000 73.5000 TC 10 -12.5000 73.5000 1 10 9 243
1963009S10083 1963 4 SI MM DELIA 1963-01-11 15:00:00 TS -11.8875 71.9705 main 1781 1732 P________PP___ SH141963 -12.6149 72.9225 22 -1 -12.6149 72.9225 TC 22 -12.5934 72.9180 1 22 9 246
1963009S10083 1963 4 SI MM DELIA 1963-01-11 18:00:00 TS -12.0661 71.5418 main 1723 1681 O________OP___ jtwc_sh SH141963 -12.7000 72.3000 35 0 -12.7000 72.3000 TC 35 -12.6725 72.2948 1 35 9 248
1963009S10083 1963 4 SI MM DELIA 1963-01-11 21:00:00 TS -12.2209 71.1144 main 1681 1632 P________PP___ SH141963 -12.7574 71.6499 47 0 -12.7574 71.6499 TC 47 -12.7402 71.6492 1 47 9 251
1963009S10083 1963 4 SI MM DELIA 1963-01-12 00:00:00 TS -12.3592 70.6838 main 1632 1590 O________OO___ jtwc_sh SH141963 -12.8000 71.0000 60 0 -12.8000 71.0000 TC 60 -12.8000 71.0000 2 60 9 252
1963009S10083 1963 4 SI MM DELIA 1963-01-12 03:00:00 TS -12.4935 70.2538 main 1590 1539 P________PP___ SH141963 -12.8498 70.4000 65 1 -12.8498 70.4000 TC 65 -12.8610 70.3628 2 61 9 251
1963009S10083 1963 4 SI MM DELIA 1963-01-12 06:00:00 TS -12.6470 69.8103 reunion main 1539 1490 O____O___OP_O_ jtwc_sh SH141963 -12.9000 69.8000 70 1 -13.0000 70.0000 4 9.90000 -12.9000 69.8000 TC 70 -12.9147 69.7275 2 62 -13.0000 70.0000 TC 65 9 252
1963009S10083 1963 4 SI MM DELIA 1963-01-12 09:00:00 TS -12.7895 69.3462 main 1481 1439 P____P___PP_P_ SH141963 -12.9575 69.1425 67 1 -13.0650 69.7699 4 -12.9575 69.1425 TC 67 -12.9610 69.1034 2 63 -13.0650 69.7699 TC 65 9 252
1963009S10083 1963 4 SI MM DELIA 1963-01-12 12:00:00 TS -12.9303 68.8953 reunion main 1439 1391 O____O___OO_O_ jtwc_sh SH141963 -13.0000 68.5000 65 1 -13.2000 69.5000 99 9.90000 -13.0000 68.5000 TC 65 -13.0000 68.5000 3 65 -13.2000 69.5000 TC 65 9 251
1963009S10083 1963 4 SI MM DELIA 1963-01-12 15:00:00 TS -13.0822 68.4789 main 1391 1349 P____P___PP_P_ SH141963 -12.9998 67.9349 55 0 -13.4425 69.1651 99 -12.9998 67.9349 TC 55 -13.0194 67.9322 3 55 -13.4425 69.1651 TC 67 9 251
1963009S10083 1963 4 SI MM DELIA 1963-01-12 18:00:00 TS -13.2218 68.0330 reunion main 1341 1299 O____O___OP_O_ jtwc_sh SH141963 -13.0000 67.4000 45 0 -13.7000 68.8000 99 9.90000 -13.0000 67.4000 TC 45 -13.0341 67.3846 3 45 -13.7000 68.8000 TC 70 9 252
1963009S10083 1963 4 SI MM DELIA 1963-01-12 21:00:00 TS -13.3553 67.6016 main 1293 1251 P____P___PP_P_ SH141963 -13.0348 66.8575 35 0 -13.8724 68.4499 99 -13.0348 66.8575 TC 35 -13.0569 66.8447 3 35 -13.8724 68.4499 TC 72 9 253
1963009S10083 1963 4 SI MM DELIA 1963-01-13 00:00:00 TS -13.4873 67.1624 reunion main 1251 1202 O____O___OO_O_ jtwc_sh SH141963 -13.1000 66.3000 25 -1 -14.0000 68.1000 99 9.90000 -13.1000 66.3000 TC 25 -13.1000 66.3000 1 25 -14.0000 68.1000 TC 75 9 253
1963009S10083 1963 4 SI MM DELIA 1963-01-13 03:00:00 TS -13.6192 66.7095 main 1202 1153 P____P___PP_P_ SH141963 -13.1925 65.7000 25 -1 -14.0922 67.7873 99 -13.1925 65.7000 TC 25 -13.1786 65.7000 1 25 -14.0922 67.7873 TC 75 10 254
1963009S10083 1963 4 SI MM DELIA 1963-01-13 06:00:00 TS -13.7545 66.2068 reunion main 1146 1097 O____O___OP_O_ jtwc_sh SH141963 -13.3000 65.1000 25 -1 -14.2000 67.4000 4 9.90000 -13.3000 65.1000 TC 25 -13.2778 65.0979 1 25 -14.2000 67.4000 TC 75 11 255
1963009S10083 1963 4 SI MM DELIA 1963-01-13 09:00:00 TS -13.9017 65.6244 main 1089 1033 P____P___PP_P_ SH141963 -13.4000 64.5200 25 -1 -14.3921 66.8900 4 -13.4000 64.5200 TC 25 -13.3880 64.5218 1 25 -14.3921 66.8900 TC 75 12 256
1963009S10083 1963 4 SI MM DELIA 1963-01-13 12:00:00 TS -14.0432 64.9908 reunion main 1033 970 O____O___OO_O_ jtwc_sh SH141963 -13.5000 64.0000 25 -1 -14.6000 66.2000 99 9.90000 -13.5000 64.0000 TC 25 -13.5000 64.0000 1 25 -14.6000 66.2000 TC 75 13 258
1963009S10083 1963 4 SI MM DELIA 1963-01-13 15:00:00 TS -14.1623 64.3322 main 962 909 P____P___PP_P_ SH141963 -13.5998 63.5700 27 -1 -14.7656 65.2651 99 -13.5998 63.5700 TC 27 -13.5910 63.5875 1 27 -14.7656 65.2651 TC 77 13 260
1963009S10083 1963 4 SI MM DELIA 1963-01-13 18:00:00 TS -14.2704 63.6988 reunion main 909 864 O____O___OP_O_ jtwc_sh SH141963 -13.7000 63.2000 30 -1 -14.9000 64.3000 99 9.90000 -13.7000 63.2000 TC 30 -13.6838 63.2270 1 30 -14.9000 64.3000 TC 80 12 259
1963009S10083 1963 4 SI MM DELIA 1963-01-13 21:00:00 TS -14.3753 63.1667 main 864 821 P____P___PP_P_ SH141963 -13.7998 62.8649 32 -1 -15.0068 63.5698 99 -13.7998 62.8649 TC 32 -13.7847 62.8780 1 32 -15.0068 63.5698 TC 80 10 258
1963009S10083 1963 4 SI MM DELIA 1963-01-14 00:00:00 TS -14.4784 62.6530 reunion main 821 772 O____O___OO_O_ jtwc_sh SH141963 -13.9000 62.5000 35 0 -15.1000 62.9000 99 9.90000 -13.9000 62.5000 TC 35 -13.9000 62.5000 2 35 -15.1000 62.9000 TC 80 11 259
1963009S10083 1963 4 SI MM DELIA 1963-01-14 03:00:00 TS -14.5753 62.0890 main 772 726 P____P___PP_P_ SH141963 -13.9850 62.0224 42 0 -15.1847 62.1722 99 -13.9850 62.0224 TC 42 -14.0111 62.0476 2 42 -15.1847 62.1722 TC 82 11 259
1963009S10083 1963 4 SI MM DELIA 1963-01-14 06:00:00 TS -14.6877 61.4977 reunion main 726 683 O____O___OP_O_ jtwc_sh SH141963 -14.1000 61.5000 50 0 -15.3000 61.4000 4 9.90000 -14.1000 61.5000 TC 50 -14.1397 61.5591 2 50 -15.3000 61.4000 TC 85 12 258
1963009S10083 1963 4 SI MM DELIA 1963-01-14 09:00:00 TS -14.8312 60.8867 main 683 633 P____P___PP_P_ SH141963 -14.2698 61.0148 57 0 -15.4924 60.5577 4 -14.2698 61.0148 TC 57 -14.2985 61.0411 2 57 -15.4924 60.5577 TC 85 12 256
1963009S10083 1963 4 SI MM DELIA 1963-01-14 12:00:00 TS -14.9966 60.2604 reunion main 633 587 O____O___OO_O_ jtwc_sh SH141963 -14.5000 60.5000 65 1 -15.7000 59.7000 99 9.90000 -14.5000 60.5000 TC 65 -14.5000 60.5000 3 65 -15.7000 59.7000 TC 85 13 255
1963009S10083 1963 4 SI MM DELIA 1963-01-14 15:00:00 TS -15.1617 59.6293 main 584 554 P____P___PP_P_ SH141963 -14.7850 59.9075 60 0 -15.8575 58.8474 99 -14.7850 59.9075 TC 60 -14.7527 59.9426 3 60 -15.8575 58.8474 TC 87 13 254
1963009S10083 1963 4 SI MM DELIA 1963-01-14 18:00:00 TS -15.3425 59.0074 reunion main 554 520 O____O___OP_O_ jtwc_sh SH141963 -15.1000 59.3000 55 0 -16.0000 58.1000 99 9.90000 -15.1000 59.3000 TC 55 -15.0474 59.3650 3 55 -16.0000 58.1000 TC 90 12 252
1963009S10083 1963 4 SI MM DELIA 1963-01-14 21:00:00 TS -15.5373 58.4123 main 520 492 P____P___PP_P_ SH141963 -15.3998 58.7423 50 0 -16.1419 57.5623 99 -15.3998 58.7423 TC 50 -15.3683 58.7799 3 50 -16.1419 57.5623 TC 90 12 250
1963009S10083 1963 4 SI MM DELIA 1963-01-15 00:00:00 TS -15.7618 57.8164 reunion main 481 459 O____O___OO_O_ jtwc_sh SH141963 -15.7000 58.2000 45 0 -16.3000 57.1000 99 9.90000 -15.7000 58.2000 TC 45 -15.7000 58.2000 2 45 -16.3000 57.1000 TC 90 13 248
1963009S10083 1963 4 SI MM DELIA 1963-01-15 03:00:00 TS -16.0266 57.1768 main 459 433 P____P___PP_P_ SH141963 -15.9924 57.6498 42 0 -16.5000 56.5501 99 -15.9924 57.6498 TC 42 -16.0132 57.6423 2 42 -16.5000 56.5501 TC 92 13 246
1963009S10083 1963 4 SI MM DELIA 1963-01-15 06:00:00 TS -16.3154 56.5499 reunion main 438 418 O____O___OP_O_ jtwc_sh SH141963 -16.3000 57.1000 40 0 -16.7000 56.0000 4 9.90000 -16.3000 57.1000 TC 40 -16.3343 57.0917 2 40 -16.7000 56.0000 TC 95 13 243
1963009S10083 1963 4 SI MM DELIA 1963-01-15 09:00:00 TS -16.6043 55.9795 main 422 415 P____P___PP_P_ SH141963 -16.6424 56.5499 37 0 -16.8573 55.4998 4 -16.6424 56.5499 TC 37 -16.6632 56.5453 2 37 -16.8573 55.4998 TC 95 12 241
1963009S10083 1963 4 SI MM DELIA 1963-01-15 12:00:00 TS -16.8957 55.4391 reunion main 420 417 O____O___OO_O_ jtwc_sh SH141963 -17.0000 56.0000 35 0 -17.0000 55.0000 99 9.90000 -17.0000 56.0000 TC 35 -17.0000 56.0000 2 35 -17.0000 55.0000 TC 95 12 241
1963009S10083 1963 4 SI MM DELIA 1963-01-15 15:00:00 TS -17.1711 54.9011 main 424 411 P____P___PP_P_ SH141963 -17.3498 55.4498 40 0 -17.1275 54.4423 99 -17.3498 55.4498 TC 40 -17.3135 55.4727 2 41 -17.1275 54.4423 TC 97 12 241
1963009S10083 1963 4 SI MM DELIA 1963-01-15 18:00:00 TS -17.4623 54.3749 reunion main 402 386 O____O___OP_O_ jtwc_sh SH141963 -17.7000 54.9000 45 0 -17.3000 53.9000 99 9.90000 -17.7000 54.9000 TC 45 -17.6386 54.9423 2 47 -17.3000 53.9000 TC 100 12 238
1963009S10083 1963 4 SI MM DELIA 1963-01-15 21:00:00 TS -17.7862 53.8617 main 386 375 P____P___PP_P_ SH141963 -18.0271 54.3719 52 0 -17.5923 53.4276 99 -18.0271 54.3719 TC 52 -17.9945 54.3909 2 53 -17.5923 53.4276 TC 100 12 235
1963009S10083 1963 4 SI MM DELIA 1963-01-16 00:00:00 TS -18.1372 53.3545 reunion main 380 367 O____O___OO_O_ jtwc_sh SH141963 -18.4000 53.8000 60 0 -17.9000 53.0000 99 9.90000 -18.4000 53.8000 TC 60 -18.4000 53.8000 2 60 -17.9000 53.0000 TC 100 12 234
1963009S10083 1963 4 SI MM DELIA 1963-01-16 03:00:00 TS -18.5085 52.8243 main 360 315 P____P___PP_P_ SH141963 -18.8700 53.1224 65 1 -18.1074 52.5773 99 -18.8700 53.1224 TC 65 -18.9082 53.1006 2 62 -18.1074 52.5773 TC 97 12 233
1963009S10083 1963 4 SI MM DELIA 1963-01-16 06:00:00 TS -18.8931 52.3100 reunion main 315 286 O____O___OP_O_ jtwc_sh SH141963 -19.4000 52.4000 70 1 -18.3000 52.2000 4 9.90000 -19.4000 52.4000 TC 70 -19.4590 52.3656 2 65 -18.3000 52.2000 TC 95 12 230
1963009S10083 1963 4 SI MM DELIA 1963-01-16 09:00:00 TS -19.2853 51.8301 main 281 250 P____P___PP_P_ SH141963 -19.9650 51.6702 70 1 -18.5574 51.8775 4 -19.9650 51.6702 TC 70 -20.0052 51.6474 2 67 -18.5574 51.8775 TC 92 12 228
1963009S10083 1963 4 SI MM DELIA 1963-01-16 12:00:00 TS -19.6555 51.3996 reunion main 253 227 O____O___OO_O_ jtwc_sh SH141963 -20.5000 51.0000 70 1 -18.8000 51.6000 99 9.90000 -20.5000 51.0000 TC 70 -20.5000 51.0000 3 70 -18.8000 51.6000 TC 90 10 228
1963009S10083 1963 4 SI MM DELIA 1963-01-16 15:00:00 TS -19.9694 51.0238 main 227 209 P____P___PP_P_ SH141963 -20.9447 50.4471 62 0 -18.9274 51.3496 99 -20.9447 50.4471 TC 62 -20.9094 50.4642 3 56 -18.9274 51.3496 TC 87 8 231
1963009S10083 1963 4 SI MM DELIA 1963-01-16 18:00:00 TS -20.1383 50.7719 reunion main 209 189 O____O___OP_O_ jtwc_sh SH141963 -21.3000 50.0000 55 0 -19.1000 51.1000 99 9.90000 -21.3000 50.0000 TC 55 -21.2464 50.0234 3 42 -19.1000 51.1000 TC 85 5 232
1963009S10083 1963 4 SI MM DELIA 1963-01-16 21:00:00 TS -20.3023 50.5707 main 190 172 P____P___PP_P_ SH141963 -21.6698 49.4997 35 0 -19.4926 50.7928 99 -21.5727 49.6302 TC 35 -21.5353 49.6461 3 28 -19.4926 50.7928 TC 82 4 227
1963009S10083 1963 4 SI MM DELIA 1963-01-17 00:00:00 TS -20.4291 50.4433 reunion main 172 172 O____O___OO_O_ jtwc_sh SH141963 -21.8000 49.3000 15 -1 -19.9000 50.5000 99 9.90000 -21.8000 49.3000 TC 15 -21.8000 49.3000 1 15 -19.9000 50.5000 TC 80 2 221
1963009S10083 1963 4 SI MM DELIA 1963-01-17 03:00:00 TS -20.4416 50.4356 main 172 165 P____P______P_ SH141963 -21.3933 49.7866 -1 -20.1150 50.2698 99 TC 1 -20.1150 50.2698 TC 77 4 216
1963009S10083 1963 4 SI MM DELIA 1963-01-17 06:00:00 TS -20.7200 50.2200 reunion main 165 160 O____O______O_ jtwc_sh SH151963 -21.0000 50.3000 -1 -20.3000 50.1000 4 9.90000 1 -20.3000 50.1000 TC 75 7 213
1963009S10083 1963 4 SI MM DELIA 1963-01-17 09:00:00 TS -21.0222 50.0272 main 160 157 P____P______P_ SH151963 -21.1950 50.1550 -1 -20.5924 49.9999 4 1 -20.5924 49.9999 TC 72 7 210
1963009S10083 1963 4 SI MM DELIA 1963-01-17 12:00:00 TS -21.3230 49.8425 reunion main 148 136 O____O______O_ jtwc_sh SH151963 -21.6000 49.8000 -1 -20.9000 49.9000 99 9.90000 -20.9000 49.9000 TC 70 7 212
1963009S10083 1963 4 SI MM DELIA 1963-01-17 15:00:00 TS -21.6053 49.6354 main 136 128 P____P______P_ SH151963 -21.9075 49.5849 -1 -21.1500 49.7075 99 -21.1500 49.7075 TC 67 7 214
1963009S10083 1963 4 SI MM DELIA 1963-01-17 18:00:00 TS -21.8800 49.4400 reunion main 124 115 O____O______O_ jtwc_sh SH151963 -22.2000 49.4000 -1 -21.4000 49.5000 99 9.90000 -21.4000 49.5000 TC 65 6 213
1963009S10083 1963 4 SI MM DELIA 1963-01-17 21:00:00 TS -22.1293 49.2693 main 118 112 P____P______P_ SH151963 -22.4500 49.2349 -1 -21.6850 49.3275 99 -21.6850 49.3275 TC 62 6 209
1963009S10083 1963 4 SI MM DELIA 1963-01-18 00:00:00 TS -22.3925 49.1350 reunion main 112 112 O____O______O_ jtwc_sh SH151963 -22.7000 49.1000 -1 -22.0000 49.2000 99 9.90000 -22.0000 49.2000 TC 60 6 201
1963009S10083 1963 4 SI MM DELIA 1963-01-18 03:00:00 TS -22.6725 49.0410 main 115 115 P____P______P_ SH151963 -22.9175 48.9849 -1 -22.3425 49.1349 99 -22.3425 49.1349 TC 57 7 192
1963009S10083 1963 4 SI MM DELIA 1963-01-18 06:00:00 TS -23.0600 48.9800 reunion main 124 121 O____O______O_ jtwc_sh SH151963 -23.3000 48.9000 -1 -22.7000 49.1000 3 9.90000 -22.7000 49.1000 TC 55 10 187
1963009S10083 1963 4 SI MM DELIA 1963-01-18 09:00:00 TS -23.6201 48.9159 main 124 124 P____P______P_ SH151963 -23.9876 48.8205 -1 -23.0275 49.0499 3 -23.0275 49.0499 TC 52 13 184
1963009S10083 1963 4 SI MM DELIA 1963-01-18 12:00:00 TS -24.3230 48.8850 reunion main 145 145 O____O______O_ jtwc_sh SH151963 -24.9000 48.8000 -1 -23.4000 49.0000 99 9.90000 -23.4000 49.0000 TC 50 15 0
1963009S10083 1963 4 SI MM DELIA 1963-01-18 15:00:00 TS -25.1274 48.8908 main 174 174 P____P______P_ SH151963 -25.9575 48.8623 -1 -23.8475 48.9278 99 -23.8475 48.9278 TC 47 16 178
1963009S10083 1963 4 SI MM DELIA 1963-01-18 18:00:00 TS -25.9600 48.9600 reunion main 220 220 O____O______O_ jtwc_sh SH151963 -27.0000 49.0000 -1 -24.4000 48.9000 99 9.90000 -24.4000 48.9000 TC 45 16 173
1963009S10083 1963 4 SI MM DELIA 1963-01-18 21:00:00 TS -26.7253 49.0959 main 275 275 P____P______P_ SH151963 -27.8023 49.1557 -1 -25.0850 48.9772 99 -25.0850 48.9772 TC 45 13 168
1963009S10083 1963 4 SI MM DELIA 1963-01-19 00:00:00 TS -27.2463 49.2765 reunion main 328 328 O____O______O_ jtwc_sh SH151963 -28.5000 49.4000 -1 -25.8000 49.1000 99 9.90000 -25.8000 49.1000 TC 45 9 161
1963009S10083 1963 4 SI MM DELIA 1963-01-19 03:00:00 TS -27.6209 49.4351 main 367 367 P____P______P_ SH151963 -29.1954 49.7635 -1 -26.4224 49.1706 99 -26.4224 49.1706 TC 45 6 156
1963009S10083 1963 4 SI MM DELIA 1963-01-19 06:00:00 MX -27.7909 49.5455 reunion main 390 372 O____O______O_ jtwc_sh SH151963 -29.9000 50.2000 -1 -27.0000 49.3000 5 9.90000 -27.0000 49.3000 EX 45 2 61
1963009S10083 1963 4 SI MM DELIA 1963-01-19 09:00:00 ET -27.5502 49.5847 main 380 380 _____P______P_ SH151963 -1 -27.5502 49.5847 5 -27.5502 49.5847 EX 42 4 135
1963009S10083 1963 4 SI MM DELIA 1963-01-19 12:00:00 TS -28.1000 49.9000 reunion main 441 441 _____O______O_ -1 -28.1000 49.9000 99 9.90000 -28.1000 49.9000 TC 40 12 159
1963009S10083 1963 4 SI MM DELIA 1963-01-19 15:00:00 TS -28.6697 50.0788 main 505 505 _____P______P_ -1 -28.6697 50.0788 99 -28.6697 50.0788 TC 35 13 164
1963009S10083 1963 4 SI MM DELIA 1963-01-19 18:00:00 TS -29.3000 50.3000 reunion main 571 571 _____O______O_ -1 -29.3000 50.3000 99 9.90000 -29.3000 50.3000 TC 30 15 158
1963009S10083 1963 4 SI MM DELIA 1963-01-19 21:00:00 TS -30.0502 50.7192 main 666 666 _____P______P_ -1 -30.0502 50.7192 99 -30.0502 50.7192 TC 32 17 153
1963009S10083 1963 4 SI MM DELIA 1963-01-20 00:00:00 TS -30.8000 51.2000 reunion main 758 758 _____O______O_ -1 -30.8000 51.2000 99 9.90000 -30.8000 51.2000 TC 35 16 151
1963009S10083 1963 4 SI MM DELIA 1963-01-20 03:00:00 TS -31.4375 51.6224 main 834 834 _____P______P_ -1 -31.4375 51.6224 99 -31.4375 51.6224 TC 35 14 150
1963009S10083 1963 4 SI MM DELIA 1963-01-20 06:00:00 ET -32.0000 52.0000 reunion main 911 _____O______O_ -1 -32.0000 52.0000 5 9.90000 -32.0000 52.0000 EX 35 13 150

IBTrACS Databaseについて

本データベースは、米国NOAAが公開する1842年以降の世界の熱帯低気圧のベストトラックデータアーカイブInternational Best Track Archive for Climate Stewardship (IBTrACS)を、ウェブで閲覧しやすい形式に変換したものです。

最終更新日:2021-10-27